This is the latest recevied weather packets stored in our database for station/object SP1JT-10. If no packets are shown the sender has not sent any weather packets the latest 10 day(s).
| Time | Temp. | Humidity | Pressure | Rain* | Wind** | Luminosity | Snow |
|---|---|---|---|---|---|---|---|
| 1778296753 | 2.22° C | 92% | 1023.8 hPa | - | - | - | - |
| 1778293754 | 2.78° C | 89% | 1023.7 hPa | - | - | - | - |
| 1778291353 | 2.78° C | 89% | 1023.5 hPa | - | - | - | - |
| 1778290154 | 3.33° C | 87% | 1023.6 hPa | - | - | - | - |
| 1778283553 | 3.89° C | 83% | 1023.8 hPa | - | - | - | - |
| 1778278154 | 5° C | 78% | 1023.8 hPa | - | - | - | - |
| 1778276358 | 5.56° C | 76% | 1023.8 hPa | - | - | - | - |
| 1778270953 | 7.22° C | 67% | 1023.5 hPa | - | - | - | - |
| 1778267953 | 8.33° C | 64% | 1023.2 hPa | - | - | - | - |
| 1778265553 | 9.44° C | 62% | 1022.8 hPa | - | - | - | - |
| 1778249354 | 13.89° C | 50% | 1022.7 hPa | - | - | - | - |
| 1778248154 | 15° C | 47% | 1022.6 hPa | - | - | - | - |
| 1778247555 | 16.67° C | 44% | 1022.3 hPa | - | - | - | - |
| 1778245755 | 16.67° C | 46% | 1022.5 hPa | - | - | - | - |
| 1778243355 | 13.89° C | 51% | 1023 hPa | - | - | - | - |
| 1778240354 | 11.67° C | 61% | 1023.3 hPa | - | - | - | - |
| 1778237354 | 10.56° C | 66% | 1023.5 hPa | - | - | - | - |
| 1778234353 | 9.44° C | 69% | 1023.6 hPa | - | - | - | - |
| 1778232553 | 8.89° C | 70% | 1023.6 hPa | - | - | - | - |
| 1778226324 | 6.67° C | 79% | 1023.1 hPa | - | - | - | - |
| 1778224754 | 6.11° C | 81% | 1023.1 hPa | - | - | - | - |
| 1778224155 | 6.11° C | 84% | 1023.1 hPa | - | - | - | - |
| 1778222952 | 5.56° C | 87% | 1023 hPa | - | - | - | - |
| 1778219774 | 5° C | 98% | 1022.7 hPa | - | - | - | - |
| 1778219653 | 4.44° C | 98% | 1022.6 hPa | - | - | - | - |
* Rain since midnight (hover to see other rain measurements)
** Current wind speed in m/s (hover to see current wind gust speed)